createdAt,value
2022-10-25T00:00:22.063Z,0
2022-10-25T00:01:23.500Z,0
2022-10-25T00:02:23.975Z,0
2022-10-25T00:03:24.313Z,0
2022-10-25T00:04:24.131Z,0
2022-10-25T00:05:25.712Z,0
2022-10-25T00:06:25.621Z,0
2022-10-25T00:07:26.238Z,0
2022-10-25T00:08:27.255Z,0
2022-10-25T00:09:27.890Z,0
2022-10-25T00:10:31.871Z,0
2022-10-25T00:11:30.081Z,0
2022-10-25T00:12:30.026Z,0
2022-10-25T00:13:30.278Z,0
2022-10-25T00:14:29.898Z,0
2022-10-25T00:15:31.598Z,0
2022-10-25T00:16:31.809Z,0
2022-10-25T00:17:32.459Z,0
2022-10-25T00:18:33.144Z,0
2022-10-25T00:19:34.383Z,0
2022-10-25T00:20:34.269Z,0
2022-10-25T00:21:34.867Z,0
2022-10-25T00:22:36.353Z,0
2022-10-25T00:23:35.984Z,0
2022-10-25T00:24:36.924Z,0
2022-10-25T00:25:37.399Z,0
2022-10-25T00:26:37.881Z,0
2022-10-25T00:27:37.489Z,0
2022-10-25T00:28:38.509Z,0
2022-10-25T00:29:39.693Z,0
2022-10-25T00:30:40.590Z,0
2022-10-25T00:31:41.493Z,0
2022-10-25T00:32:42.391Z,0
2022-10-25T00:33:42.229Z,0
2022-10-25T00:34:43.143Z,0
2022-10-25T00:35:43.478Z,0
2022-10-25T00:36:44.390Z,0
2022-10-25T00:38:45.969Z,0
2022-10-25T00:39:45.896Z,0
2022-10-25T00:40:47.371Z,0
2022-10-25T00:41:47.685Z,0
2022-10-25T00:42:48.978Z,0
2022-10-25T00:43:49.437Z,0
2022-10-25T00:44:49.772Z,0
2022-10-25T00:45:50.413Z,0
2022-10-25T00:46:50.771Z,0
2022-10-25T00:47:52.769Z,0
2022-10-25T00:48:52.754Z,0
2022-10-25T00:49:53.679Z,0
2022-10-25T00:50:54.016Z,0
2022-10-25T00:51:54.647Z,0
2022-10-25T00:52:55.856Z,0
2022-10-25T00:53:57.058Z,0
2022-10-25T00:54:57.301Z,0
2022-10-25T00:55:57.497Z,0
2022-10-25T00:56:58.710Z,0
2022-10-25T00:57:59.072Z,0
2022-10-25T00:58:59.809Z,0
2022-10-25T00:59:59.995Z,0
2022-10-25T01:01:00.359Z,0
2022-10-25T01:02:01.580Z,0
2022-10-25T01:03:02.121Z,0
2022-10-25T01:04:02.325Z,0
2022-10-25T01:05:02.249Z,0
2022-10-25T01:06:02.866Z,0
2022-10-25T01:07:03.480Z,0
2022-10-25T01:08:04.706Z,0
2022-10-25T01:09:05.003Z,0
2022-10-25T01:10:05.215Z,0
2022-10-25T01:11:05.741Z,0
2022-10-25T01:12:05.996Z,0
2022-10-25T01:13:06.006Z,0
2022-10-25T01:14:07.190Z,0
2022-10-25T01:15:07.380Z,0
2022-10-25T01:16:07.263Z,0
2022-10-25T01:17:08.467Z,0
2022-10-25T01:18:08.383Z,0
2022-10-25T01:19:09.366Z,0
2022-10-25T01:20:09.257Z,0
2022-10-25T01:21:09.146Z,0
2022-10-25T01:22:09.765Z,0
2022-10-25T01:23:11.250Z,0
2022-10-25T01:24:11.458Z,0
2022-10-25T01:25:11.396Z,0
2022-10-25T01:26:11.986Z,0
2022-10-25T01:27:12.325Z,0
2022-10-25T01:28:13.213Z,0
2022-10-25T01:29:14.220Z,0
2022-10-25T01:30:14.846Z,0
2022-10-25T01:31:15.766Z,0
2022-10-25T01:32:16.680Z,0
2022-10-25T01:33:17.600Z,0
2022-10-25T01:34:18.185Z,0
2022-10-25T01:35:19.105Z,0
2022-10-25T01:36:19.094Z,0
2022-10-25T01:37:20.288Z,0
2022-10-25T01:38:20.494Z,0
2022-10-25T01:39:20.937Z,0
2022-10-25T01:40:21.890Z,0
2022-10-25T01:41:22.805Z,0
2022-10-25T01:42:23.135Z,0
2022-10-25T01:43:24.473Z,0
2022-10-25T01:44:25.175Z,0
2022-10-25T01:45:25.911Z,0
2022-10-25T01:46:26.110Z,0
2022-10-25T01:47:26.313Z,0
2022-10-25T01:48:27.515Z,0
2022-10-25T01:49:27.563Z,0
2022-10-25T01:50:27.483Z,0
2022-10-25T01:51:28.379Z,0
2022-10-25T01:52:28.986Z,0
2022-10-25T01:53:30.178Z,0
2022-10-25T01:54:29.813Z,0
2022-10-25T01:55:31.026Z,0
2022-10-25T01:56:31.621Z,0
2022-10-25T01:57:32.809Z,0
2022-10-25T01:58:33.994Z,0
2022-10-25T01:59:34.700Z,0
2022-10-25T02:00:35.189Z,0
2022-10-25T02:01:36.493Z,0
2022-10-25T02:02:35.778Z,0
2022-10-25T02:03:35.977Z,0
2022-10-25T02:04:36.311Z,0
2022-10-25T02:05:37.520Z,0
2022-10-25T02:06:37.809Z,0
2022-10-25T02:07:38.692Z,0
2022-10-25T02:08:39.610Z,0
2022-10-25T02:09:40.609Z,0
2022-10-25T02:10:41.536Z,0
2022-10-25T02:11:42.009Z,0
2022-10-25T02:12:42.218Z,0
2022-10-25T02:13:42.802Z,0
2022-10-25T02:14:43.412Z,0
2022-10-25T02:15:44.020Z,0
2022-10-25T02:16:44.923Z,0
2022-10-25T02:17:45.840Z,0
2022-10-25T02:18:45.764Z,0
2022-10-25T02:19:46.191Z,0
2022-10-25T02:20:52.490Z,0
2022-10-25T02:21:47.400Z,0
2022-10-25T02:22:48.319Z,0
2022-10-25T02:23:48.413Z,0
2022-10-25T02:24:49.617Z,0
2022-10-25T02:25:50.558Z,0
2022-10-25T02:26:51.645Z,0
2022-10-25T02:27:52.652Z,0
2022-10-25T02:28:52.545Z,0
2022-10-25T02:29:53.524Z,0
2022-10-25T02:30:54.729Z,0
2022-10-25T02:31:54.933Z,0
2022-10-25T02:32:55.140Z,0
2022-10-25T02:33:56.062Z,0
2022-10-25T02:34:55.687Z,0
2022-10-25T02:35:56.653Z,0
2022-10-25T02:36:56.559Z,0
2022-10-25T02:37:58.171Z,0
2022-10-25T02:38:57.799Z,0
2022-10-25T02:39:58.372Z,0
2022-10-25T02:40:58.292Z,0
2022-10-25T02:41:59.484Z,0
2022-10-25T02:42:59.971Z,0
2022-10-25T02:44:00.175Z,0
2022-10-25T02:45:00.810Z,0
2022-10-25T02:46:01.026Z,0
2022-10-25T02:47:01.652Z,0
2022-10-25T02:48:02.554Z,0
2022-10-25T02:49:02.515Z,0
2022-10-25T02:50:02.832Z,0
2022-10-25T02:51:03.726Z,0
2022-10-25T02:52:03.954Z,0
2022-10-25T02:53:05.156Z,0
2022-10-25T02:54:04.789Z,0
2022-10-25T02:55:05.165Z,0
2022-10-25T02:56:06.102Z,0
2022-10-25T02:57:06.424Z,0
2022-10-25T02:58:07.330Z,0
2022-10-25T02:59:07.929Z,0
2022-10-25T03:00:09.513Z,0
2022-10-25T03:01:09.986Z,0
2022-10-25T03:02:10.063Z,0
2022-10-25T03:03:09.971Z,0
2022-10-25T03:04:10.894Z,0
2022-10-25T03:05:11.780Z,0
2022-10-25T03:06:12.700Z,0
2022-10-25T03:07:13.285Z,0
2022-10-25T03:08:13.472Z,0
2022-10-25T03:09:13.880Z,0
2022-10-25T03:10:14.900Z,0
2022-10-25T03:11:15.134Z,0
2022-10-25T03:12:15.016Z,0
2022-10-25T03:13:15.347Z,0
2022-10-25T03:14:16.565Z,0
2022-10-25T03:15:17.474Z,0
2022-10-25T03:16:17.088Z,0
2022-10-25T03:17:18.283Z,0
2022-10-25T03:18:18.763Z,0
2022-10-25T03:19:19.262Z,0
2022-10-25T03:20:19.376Z,0
2022-10-25T03:21:21.021Z,0
2022-10-25T03:22:21.931Z,0
2022-10-25T03:23:22.820Z,0
2022-10-25T03:24:23.156Z,0
2022-10-25T03:25:23.779Z,0
2022-10-25T03:26:24.714Z,0
2022-10-25T03:27:25.907Z,0
2022-10-25T03:28:26.517Z,0
2022-10-25T03:29:27.428Z,0
2022-10-25T03:30:27.733Z,0
2022-10-25T03:31:28.345Z,0
2022-10-25T03:32:29.851Z,0
2022-10-25T03:34:30.637Z,0
2022-10-25T03:35:30.955Z,0
2022-10-25T03:36:32.169Z,0
2022-10-25T03:37:31.768Z,0
2022-10-25T03:38:32.971Z,0
2022-10-25T03:39:33.898Z,0
2022-10-25T03:40:34.610Z,0
2022-10-25T03:41:34.524Z,0
2022-10-25T03:42:35.424Z,0
2022-10-25T03:43:36.036Z,0
2022-10-25T03:44:36.661Z,0
2022-10-25T03:45:37.850Z,0
2022-10-25T03:46:37.736Z,0
2022-10-25T03:47:38.638Z,0
2022-10-25T03:48:38.667Z,0
2022-10-25T03:49:39.868Z,0
2022-10-25T03:50:40.594Z,0
2022-10-25T03:51:40.811Z,0
2022-10-25T03:52:41.718Z,0
2022-10-25T03:53:42.210Z,0
2022-10-25T03:54:41.839Z,0
2022-10-25T03:55:43.038Z,0
2022-10-25T03:56:43.271Z,0
2022-10-25T03:57:43.942Z,0
2022-10-25T03:58:43.270Z,0
2022-10-25T03:59:44.758Z,0
2022-10-25T04:00:45.675Z,0
2022-10-25T04:01:46.508Z,0
2022-10-25T04:02:46.934Z,0
2022-10-25T04:03:47.894Z,0
2022-10-25T04:04:48.520Z,0
2022-10-25T04:05:49.128Z,0
2022-10-25T04:06:49.616Z,0
2022-10-25T04:07:50.091Z,0
2022-10-25T04:08:50.279Z,0
2022-10-25T04:09:50.763Z,0
2022-10-25T04:10:51.361Z,0
2022-10-25T04:11:51.696Z,0
2022-10-25T04:12:52.881Z,0
2022-10-25T04:13:53.143Z,0
2022-10-25T04:14:53.766Z,0
2022-10-25T04:15:54.954Z,0
2022-10-25T04:16:55.581Z,0
2022-10-25T04:17:56.700Z,0
2022-10-25T04:18:56.611Z,0
2022-10-25T04:19:57.526Z,0
2022-10-25T04:20:58.232Z,0
2022-10-25T04:21:59.154Z,0
2022-10-25T04:22:59.472Z,0
2022-10-25T04:24:03.573Z,0
2022-10-25T04:25:00.574Z,0
2022-10-25T04:26:01.501Z,0
2022-10-25T04:27:01.840Z,0
2022-10-25T04:28:02.745Z,0
2022-10-25T04:29:03.628Z,0
2022-10-25T04:30:04.710Z,0
2022-10-25T04:31:04.695Z,0
2022-10-25T04:32:05.913Z,0
2022-10-25T04:33:06.159Z,0
2022-10-25T04:34:07.043Z,0
2022-10-25T04:35:07.271Z,0
2022-10-25T04:36:07.888Z,0
2022-10-25T04:37:08.378Z,0
2022-10-25T04:50:16.211Z,0
2022-10-25T04:51:16.221Z,0
2022-10-25T04:52:17.138Z,0
2022-10-25T04:53:17.619Z,0
2022-10-25T04:54:17.534Z,0
2022-10-25T04:55:18.443Z,0
2022-10-25T04:56:19.052Z,0
2022-10-25T04:57:19.962Z,0
2022-10-25T04:58:20.598Z,0
2022-10-25T04:59:21.193Z,0
2022-10-25T05:00:21.824Z,0
2022-10-25T05:01:22.592Z,0
2022-10-25T05:02:22.212Z,0
2022-10-25T05:03:24.091Z,0
2022-10-25T05:04:23.420Z,0
2022-10-25T05:05:23.659Z,0
2022-10-25T05:06:23.582Z,0
2022-10-25T05:07:24.209Z,0
2022-10-25T05:08:24.394Z,0
2022-10-25T05:09:24.282Z,0
2022-10-25T05:10:25.193Z,0
2022-10-25T05:11:25.976Z,0
2022-10-25T05:12:26.219Z,0
2022-10-25T05:13:26.832Z,0
2022-10-25T05:14:28.024Z,0
2022-10-25T05:15:27.933Z,0
2022-10-25T05:16:28.278Z,0
2022-10-25T05:17:29.182Z,0
2022-10-25T05:18:29.765Z,0
2022-10-25T05:19:29.807Z,0
2022-10-25T05:20:31.766Z,0
2022-10-25T05:21:32.244Z,0
2022-10-25T05:22:32.172Z,0
2022-10-25T05:23:32.797Z,0
2022-10-25T05:24:33.430Z,0
2022-10-25T05:25:34.091Z,0
2022-10-25T05:26:35.001Z,0
2022-10-25T05:27:36.210Z,0
2022-10-25T05:28:36.143Z,0
2022-10-25T05:29:36.764Z,4
2022-10-25T05:30:36.959Z,4
2022-10-25T05:31:36.720Z,0
2022-10-25T05:32:37.606Z,0
2022-10-25T05:33:38.505Z,4
2022-10-25T05:34:39.422Z,4
2022-10-25T05:35:39.666Z,0
2022-10-25T05:36:40.155Z,4
2022-10-25T05:37:40.381Z,4
2022-10-25T05:38:43.253Z,4
2022-10-25T05:39:40.287Z,4
2022-10-25T05:40:41.772Z,8
2022-10-25T05:41:47.554Z,8
2022-10-25T05:42:43.167Z,12
2022-10-25T05:43:43.456Z,12
2022-10-25T05:44:44.367Z,12
2022-10-25T05:45:44.263Z,16
2022-10-25T05:46:44.183Z,16
2022-10-25T05:47:45.095Z,20
2022-10-25T05:48:54.048Z,24
2022-10-25T05:49:45.955Z,24
2022-10-25T05:50:47.994Z,28
2022-10-25T05:51:49.216Z,32
2022-10-25T05:52:50.221Z,32
2022-10-25T05:53:50.414Z,32
2022-10-25T05:54:50.724Z,28
2022-10-25T05:55:52.054Z,32
2022-10-25T05:56:52.587Z,32
2022-10-25T05:57:52.789Z,40
2022-10-25T05:58:52.417Z,40
2022-10-25T05:59:53.030Z,40
2022-10-25T06:00:53.821Z,40
2022-10-25T06:01:54.603Z,44
2022-10-25T06:02:55.320Z,44
2022-10-25T06:03:55.661Z,44
2022-10-25T06:05:02.756Z,48
2022-10-25T06:05:57.736Z,48
2022-10-25T06:06:58.230Z,48
2022-10-25T06:07:58.731Z,52
2022-10-25T06:08:58.944Z,56
2022-10-25T06:10:00.141Z,64
2022-10-25T06:11:00.245Z,72
2022-10-25T06:12:00.253Z,76
2022-10-25T06:13:00.975Z,88
2022-10-25T06:14:02.188Z,92
2022-10-25T06:15:03.077Z,100
2022-10-25T06:16:04.025Z,108
2022-10-25T06:17:04.942Z,112
2022-10-25T06:18:05.435Z,120
2022-10-25T06:19:05.354Z,132
2022-10-25T06:20:06.270Z,152
2022-10-25T06:21:06.951Z,172
2022-10-25T06:22:07.508Z,200
2022-10-25T06:23:08.090Z,212
2022-10-25T06:24:08.406Z,220
2022-10-25T06:25:09.309Z,224
2022-10-25T06:26:10.215Z,220
2022-10-25T06:27:10.429Z,220
2022-10-25T06:28:11.045Z,216
2022-10-25T06:29:12.531Z,200
2022-10-25T06:30:11.848Z,184
2022-10-25T06:31:13.094Z,172
2022-10-25T06:32:13.707Z,168
2022-10-25T06:33:13.322Z,168
2022-10-25T06:34:13.642Z,160
2022-10-25T06:35:14.852Z,152
2022-10-25T06:36:15.400Z,140
2022-10-25T06:37:15.634Z,140
2022-10-25T06:38:15.853Z,144
2022-10-25T06:39:17.955Z,152
2022-10-25T06:40:18.304Z,164
2022-10-25T06:41:18.357Z,172
2022-10-25T06:42:19.076Z,172
2022-10-25T06:43:19.425Z,180
2022-10-25T06:44:20.621Z,176
2022-10-25T06:45:21.640Z,172
2022-10-25T06:46:22.598Z,180
2022-10-25T06:47:29.045Z,184
2022-10-25T06:48:22.665Z,176
2022-10-25T06:49:23.722Z,172
2022-10-25T06:50:24.363Z,160
2022-10-25T06:51:25.639Z,144
2022-10-25T06:52:25.957Z,140
2022-10-25T06:53:26.601Z,148
2022-10-25T06:54:27.816Z,168
2022-10-25T06:55:27.136Z,180
2022-10-25T06:56:28.035Z,184
2022-10-25T06:57:27.951Z,196
2022-10-25T06:58:28.889Z,200
2022-10-25T06:59:29.126Z,204
2022-10-25T07:00:30.421Z,208
2022-10-25T07:01:31.428Z,228
2022-10-25T07:02:31.369Z,252
2022-10-25T07:03:31.030Z,276
2022-10-25T07:04:31.968Z,296
2022-10-25T07:05:32.868Z,300
2022-10-25T07:06:34.325Z,280
2022-10-25T07:07:34.266Z,256
2022-10-25T07:08:34.614Z,240
2022-10-25T07:09:35.529Z,224
2022-10-25T07:10:36.753Z,216
2022-10-25T07:11:36.774Z,216
2022-10-25T07:12:37.240Z,204
2022-10-25T07:13:37.748Z,200
2022-10-25T07:14:37.935Z,212
2022-10-25T07:15:42.959Z,244
2022-10-25T07:16:39.938Z,288
2022-10-25T07:17:40.418Z,328
2022-10-25T07:18:40.198Z,344
2022-10-25T07:19:41.742Z,360
2022-10-25T07:20:41.781Z,388
2022-10-25T07:21:43.627Z,404
2022-10-25T07:22:43.636Z,432
2022-10-25T07:23:44.604Z,456
2022-10-25T07:24:44.576Z,492
2022-10-25T07:25:45.218Z,556
2022-10-25T07:26:46.423Z,556
2022-10-25T07:27:47.561Z,544
2022-10-25T07:28:47.714Z,608
2022-10-25T07:29:48.355Z,708
2022-10-25T07:30:49.003Z,876
2022-10-25T07:31:50.496Z,976
2022-10-25T07:32:53.832Z,1112
2022-10-25T07:33:51.049Z,2748
2022-10-25T07:34:52.165Z,896
2022-10-25T07:36:17.416Z,956
2022-10-25T07:36:53.681Z,904
2022-10-25T07:37:54.303Z,880
2022-10-25T07:38:54.805Z,1880
2022-10-25T07:39:54.725Z,792
2022-10-25T07:40:55.164Z,1076
2022-10-25T07:41:55.364Z,4216
2022-10-25T07:42:55.811Z,6548
2022-10-25T07:43:56.466Z,8332
2022-10-25T07:44:57.591Z,8760
2022-10-25T07:45:57.235Z,5848
2022-10-25T07:46:57.648Z,5876
2022-10-25T07:47:59.352Z,6020
2022-10-25T07:48:59.574Z,5532
2022-10-25T07:49:59.484Z,5892
2022-10-25T07:51:00.128Z,6060
2022-10-25T07:52:00.840Z,5928
2022-10-25T07:53:01.569Z,5524
2022-10-25T07:54:01.815Z,5512
2022-10-25T07:55:02.329Z,792
2022-10-25T07:56:02.543Z,856
2022-10-25T07:57:02.506Z,3512
2022-10-25T07:58:02.411Z,3116
2022-10-25T07:59:02.763Z,3892
2022-10-25T08:00:03.491Z,4992
2022-10-25T08:01:04.513Z,4940
2022-10-25T08:02:05.062Z,3472
2022-10-25T08:03:05.890Z,2528
2022-10-25T08:04:06.933Z,2772
2022-10-25T08:05:07.157Z,3424
2022-10-25T08:06:08.376Z,4192
2022-10-25T08:07:08.642Z,3736
2022-10-25T08:08:09.554Z,2668
2022-10-25T08:09:44.030Z,1648
2022-10-25T08:10:10.365Z,1564
2022-10-25T08:11:11.614Z,1632
2022-10-25T08:12:12.199Z,2112
2022-10-25T08:13:12.601Z,2656
2022-10-25T08:14:13.223Z,2716
2022-10-25T08:15:13.487Z,3296
2022-10-25T08:16:14.126Z,5012
2022-10-25T08:17:15.331Z,6540
2022-10-25T08:18:15.731Z,4832
2022-10-25T08:19:15.924Z,3636
2022-10-25T08:20:17.156Z,3936
2022-10-25T08:21:17.381Z,3488
2022-10-25T08:22:17.760Z,3332
2022-10-25T08:23:18.239Z,3668
2022-10-25T08:25:20.704Z,4852
2022-10-25T08:26:20.243Z,3504
2022-10-25T08:27:20.595Z,1064
2022-10-25T08:28:22.097Z,2012
2022-10-25T08:29:22.531Z,1884
2022-10-25T08:30:23.033Z,2852
2022-10-25T08:31:23.249Z,2504
2022-10-25T08:32:23.472Z,1360
2022-10-25T08:33:23.550Z,1148
2022-10-25T08:34:24.201Z,1256
2022-10-25T08:35:24.314Z,1420
2022-10-25T08:36:25.261Z,1508
2022-10-25T08:37:25.854Z,1356
2022-10-25T08:38:26.085Z,1432
2022-10-25T08:39:27.319Z,1536
2022-10-25T08:40:26.968Z,1744
2022-10-25T08:41:28.218Z,1664
2022-10-25T08:42:28.782Z,1416
2022-10-25T08:43:29.115Z,1368
2022-10-25T08:44:29.573Z,1348
2022-10-25T08:45:29.772Z,1340
2022-10-25T08:46:30.016Z,1344
2022-10-25T08:47:30.382Z,1804
2022-10-25T08:48:31.321Z,1900
2022-10-25T08:49:32.558Z,2328
2022-10-25T08:50:33.474Z,3256
2022-10-25T08:51:33.755Z,3488
2022-10-25T08:52:34.741Z,3568
2022-10-25T08:53:35.346Z,2984
2022-10-25T08:54:35.973Z,2612
2022-10-25T08:55:39.119Z,4032
2022-10-25T08:56:42.529Z,5800
2022-10-25T08:57:37.227Z,6468
2022-10-25T08:58:38.226Z,7540
2022-10-25T08:59:39.718Z,8248
2022-10-25T09:00:39.640Z,7008
2022-10-25T09:01:40.143Z,6596
2022-10-25T09:02:40.990Z,8484
2022-10-25T09:04:41.270Z,8248
2022-10-25T09:05:42.202Z,9800
2022-10-25T09:06:43.281Z,10460
2022-10-25T09:07:48.738Z,8216
2022-10-25T09:08:45.051Z,7952
2022-10-25T09:09:45.589Z,7580
2022-10-25T09:10:45.538Z,5568
2022-10-25T09:11:45.865Z,4660
2022-10-25T09:12:47.168Z,5212
2022-10-25T09:13:47.615Z,6068
2022-10-25T09:14:47.961Z,6328
2022-10-25T09:15:53.494Z,5864
2022-10-25T09:16:49.704Z,4896
2022-10-25T09:17:51.258Z,4216
2022-10-25T09:18:51.559Z,4360
2022-10-25T09:19:51.522Z,3908
2022-10-25T09:20:52.641Z,1820
2022-10-25T09:21:53.685Z,1772
2022-10-25T09:22:53.971Z,1468
2022-10-25T09:23:54.286Z,2028
2022-10-25T09:24:57.789Z,2388
2022-10-25T09:25:55.048Z,1772
2022-10-25T09:26:55.673Z,2800
2022-10-25T09:27:57.199Z,3448
2022-10-25T09:28:57.719Z,3252
2022-10-25T09:29:57.643Z,2708
2022-10-25T09:30:58.677Z,3840
2022-10-25T09:31:58.500Z,4664
2022-10-25T09:32:58.439Z,4944
2022-10-25T09:34:01.489Z,4600
2022-10-25T09:35:00.062Z,4312
2022-10-25T09:36:00.324Z,4796
2022-10-25T09:37:00.258Z,3996
2022-10-25T09:38:01.831Z,3044
2022-10-25T09:39:01.500Z,2668
2022-10-25T09:40:02.467Z,2732
2022-10-25T09:41:03.207Z,2684
2022-10-25T09:42:04.048Z,2484
2022-10-25T09:44:05.828Z,3068
2022-10-25T09:45:05.760Z,3332
2022-10-25T09:46:06.227Z,3348
2022-10-25T09:47:06.858Z,3044
2022-10-25T09:48:07.626Z,3084
2022-10-25T09:49:08.568Z,3660
2022-10-25T09:50:09.226Z,4056
2022-10-25T09:51:10.483Z,5084
2022-10-25T09:52:10.703Z,5584
2022-10-25T09:53:10.745Z,5424
2022-10-25T09:54:10.796Z,6920
2022-10-25T09:55:12.306Z,7932
2022-10-25T09:56:13.225Z,7784
2022-10-25T09:57:13.587Z,8868
2022-10-25T09:58:14.790Z,9776
2022-10-25T09:59:15.001Z,10032
2022-10-25T10:00:15.674Z,10196
2022-10-25T10:01:16.182Z,10304
2022-10-25T10:02:16.851Z,10412
2022-10-25T10:03:17.121Z,10544
2022-10-25T10:04:18.072Z,10660
2022-10-25T10:05:17.947Z,10732
2022-10-25T10:06:18.905Z,10616
2022-10-25T10:07:18.689Z,10740
2022-10-25T10:08:19.961Z,10760
2022-10-25T10:09:20.186Z,10736
2022-10-25T10:10:21.419Z,10948
2022-10-25T10:11:21.665Z,10676
2022-10-25T10:12:22.182Z,10828
2022-10-25T10:13:22.123Z,10840
2022-10-25T10:14:23.174Z,10960
2022-10-25T10:15:23.382Z,10936
2022-10-25T10:16:24.586Z,10844
2022-10-25T10:17:25.274Z,10932
2022-10-25T10:18:26.228Z,10940
2022-10-25T10:19:27.155Z,11024
2022-10-25T10:20:27.827Z,11052
2022-10-25T10:21:28.482Z,11040
2022-10-25T10:22:29.742Z,11176
2022-10-25T10:23:30.720Z,11296
2022-10-25T10:24:31.058Z,11388
2022-10-25T10:25:31.001Z,11368
2022-10-25T10:26:32.207Z,11372
2022-10-25T10:27:31.841Z,11144
2022-10-25T10:28:32.793Z,10724
2022-10-25T10:29:33.029Z,10812
2022-10-25T10:30:34.287Z,10836
2022-10-25T10:31:35.290Z,10212
2022-10-25T10:32:36.814Z,9976
2022-10-25T10:33:36.509Z,10368
2022-10-25T10:34:37.887Z,10384
2022-10-25T10:35:38.378Z,10032
2022-10-25T10:36:38.301Z,10504
2022-10-25T10:37:39.228Z,10572
2022-10-25T10:38:40.680Z,10388
2022-10-25T10:39:40.615Z,9768
2022-10-25T10:40:41.554Z,9908
2022-10-25T10:41:42.280Z,9204
2022-10-25T10:42:42.588Z,8096
2022-10-25T10:43:42.839Z,7916
2022-10-25T10:44:44.173Z,7640
2022-10-25T10:45:44.831Z,8592
2022-10-25T10:46:45.758Z,9200
2022-10-25T10:47:45.665Z,8488
2022-10-25T10:48:53.380Z,7744
2022-10-25T10:49:47.582Z,6896
2022-10-25T10:50:52.609Z,7436
2022-10-25T10:51:56.862Z,7344
2022-10-25T10:52:49.500Z,7140
2022-10-25T10:53:49.483Z,7160
2022-10-25T10:54:49.537Z,8828
2022-10-25T10:55:50.826Z,9852
2022-10-25T10:56:51.325Z,9944
2022-10-25T10:57:51.829Z,10016
2022-10-25T10:58:58.783Z,9124
2022-10-25T10:59:52.182Z,10176
2022-10-25T11:00:53.168Z,8932
2022-10-25T11:01:54.751Z,5880
2022-10-25T11:04:10.908Z,10100
2022-10-25T11:04:57.704Z,8600
2022-10-25T11:05:58.766Z,9016
2022-10-25T11:06:59.275Z,4056
2022-10-25T11:08:00.241Z,1356
2022-10-25T11:09:00.510Z,1160
2022-10-25T11:10:01.017Z,1068
2022-10-25T11:11:01.534Z,1116
2022-10-25T11:12:01.165Z,2204
2022-10-25T11:13:02.354Z,1788
2022-10-25T11:14:02.083Z,1472
2022-10-25T11:15:03.407Z,2736
2022-10-25T11:16:04.140Z,6060
2022-10-25T11:17:05.319Z,5072
2022-10-25T11:18:04.972Z,3516
2022-10-25T11:19:05.878Z,2388
2022-10-25T11:20:07.097Z,3692
2022-10-25T11:21:07.314Z,3616
2022-10-25T11:22:07.216Z,5756
2022-10-25T11:23:11.446Z,7972
2022-10-25T11:24:09.027Z,1340
2022-10-25T11:25:08.639Z,1212
2022-10-25T11:26:08.687Z,1280
2022-10-25T11:27:10.191Z,1300
2022-10-25T11:28:10.415Z,1508
2022-10-25T11:29:10.685Z,2616
2022-10-25T11:30:11.599Z,7556
2022-10-25T11:31:12.521Z,8488
2022-10-25T11:32:13.446Z,9176
2022-10-25T11:33:14.095Z,9088
2022-10-25T11:34:18.739Z,9288
2022-10-25T11:35:15.539Z,9596
2022-10-25T11:36:16.733Z,9344
2022-10-25T11:37:17.660Z,8792
2022-10-25T11:38:18.565Z,8744
2022-10-25T11:39:20.182Z,8556
2022-10-25T11:40:20.442Z,8180
2022-10-25T11:41:20.746Z,7752
2022-10-25T11:42:22.342Z,6464
2022-10-25T11:43:21.761Z,5800
2022-10-25T11:44:23.152Z,5112
2022-10-25T11:45:23.097Z,5668
2022-10-25T11:46:23.732Z,6100
2022-10-25T11:47:24.970Z,6196
2022-10-25T11:48:25.586Z,6136
2022-10-25T11:49:26.808Z,6236
2022-10-25T11:50:26.733Z,6240
2022-10-25T11:51:27.934Z,5524
2022-10-25T11:52:28.434Z,5252
2022-10-25T11:53:28.070Z,5684
2022-10-25T11:54:29.612Z,6296
2022-10-25T11:55:29.429Z,6572
2022-10-25T11:56:30.757Z,6060
2022-10-25T11:57:30.395Z,5924
2022-10-25T11:58:31.301Z,5368
2022-10-25T11:59:31.810Z,5860
2022-10-25T12:00:32.539Z,6324
2022-10-25T12:01:34.058Z,5972
2022-10-25T12:02:34.262Z,5920
2022-10-25T12:03:34.289Z,6208
2022-10-25T12:04:43.358Z,6068
2022-10-25T12:05:35.444Z,6104
2022-10-25T12:06:36.651Z,5856
2022-10-25T12:07:37.148Z,5040
2022-10-25T12:08:37.657Z,5320
2022-10-25T12:09:38.569Z,5816
2022-10-25T12:10:38.427Z,5916
2022-10-25T12:11:39.573Z,6356
2022-10-25T12:12:39.494Z,6424
2022-10-25T12:13:39.853Z,6268
2022-10-25T12:14:39.583Z,5928
2022-10-25T12:15:41.111Z,5640
2022-10-25T12:16:41.335Z,5628
2022-10-25T12:17:42.259Z,5752
2022-10-25T12:18:42.197Z,5720
2022-10-25T12:19:42.637Z,5720
2022-10-25T12:20:43.828Z,6204
2022-10-25T12:21:44.584Z,5864
2022-10-25T12:22:45.682Z,5856
2022-10-25T12:23:45.442Z,6016
2022-10-25T12:24:46.705Z,6180
2022-10-25T12:25:46.197Z,6412
2022-10-25T12:26:46.933Z,6320
2022-10-25T12:27:47.157Z,6168
2022-10-25T12:28:47.182Z,6112
2022-10-25T12:29:48.682Z,5944
2022-10-25T12:30:48.884Z,6364
2022-10-25T12:31:49.543Z,7016
2022-10-25T12:32:51.032Z,7032
2022-10-25T12:33:50.663Z,6704
2022-10-25T12:34:51.873Z,6468
2022-10-25T12:35:51.930Z,6172
2022-10-25T12:36:52.858Z,5532
2022-10-25T12:38:04.412Z,4868
2022-10-25T12:38:54.034Z,5304
2022-10-25T12:39:55.858Z,5864
2022-10-25T12:40:56.159Z,6164
2022-10-25T12:41:57.222Z,6660
2022-10-25T12:42:58.906Z,6952
2022-10-25T12:43:59.195Z,6572
2022-10-25T12:44:59.963Z,6868
2022-10-25T12:46:04.346Z,6944
2022-10-25T12:47:00.556Z,7424
2022-10-25T12:48:00.218Z,7100
2022-10-25T12:49:01.133Z,6500
2022-10-25T12:50:01.942Z,6704
2022-10-25T12:51:01.773Z,7016
2022-10-25T12:52:01.969Z,7112
2022-10-25T12:53:03.303Z,7404
2022-10-25T12:54:02.980Z,6660
2022-10-25T12:55:04.972Z,6484
2022-10-25T12:56:04.423Z,6732
2022-10-25T12:57:04.473Z,6936
2022-10-25T12:58:05.427Z,6896
2022-10-25T12:59:06.054Z,6168
2022-10-25T13:00:07.067Z,6508
2022-10-25T13:01:08.356Z,6132
2022-10-25T13:02:08.427Z,6036
2022-10-25T13:03:10.045Z,5560
2022-10-25T13:04:09.716Z,5948
2022-10-25T13:05:10.638Z,6732
2022-10-25T13:06:10.965Z,6920
2022-10-25T13:07:11.251Z,6500
2022-10-25T13:08:11.170Z,6268
2022-10-25T13:09:11.782Z,6636
2022-10-25T13:10:13.338Z,6876
2022-10-25T13:11:13.766Z,6852
2022-10-25T13:12:14.818Z,6820
2022-10-25T13:13:15.322Z,6568
2022-10-25T13:14:15.378Z,6036
2022-10-25T13:15:16.886Z,6024
2022-10-25T13:16:17.216Z,6428
2022-10-25T13:17:17.151Z,6784
2022-10-25T13:18:20.014Z,6848
2022-10-25T13:19:21.670Z,6896
2022-10-25T13:21:20.146Z,6816
2022-10-25T13:22:20.792Z,6732
2022-10-25T13:23:21.012Z,6752
2022-10-25T13:24:20.981Z,6684
2022-10-25T13:25:22.261Z,6576
2022-10-25T13:26:22.430Z,6836
2022-10-25T13:27:23.768Z,6780
2022-10-25T13:28:24.113Z,6504
2022-10-25T13:29:25.182Z,6512
2022-10-25T13:30:26.469Z,6188
2022-10-25T13:31:27.245Z,6036
2022-10-25T13:32:27.895Z,5916
2022-10-25T13:33:28.827Z,5776
2022-10-25T13:34:29.332Z,5648
2022-10-25T13:35:29.278Z,5456
2022-10-25T13:36:30.045Z,1692
2022-10-25T13:37:30.995Z,1476
2022-10-25T13:38:35.352Z,2788
2022-10-25T13:39:32.242Z,964
2022-10-25T13:40:33.271Z,1120
2022-10-25T13:41:33.955Z,1552
2022-10-25T13:42:34.269Z,3732
2022-10-25T13:43:35.201Z,2088
2022-10-25T13:44:35.843Z,1920
2022-10-25T13:45:40.268Z,908
2022-10-25T13:46:37.361Z,2264
2022-10-25T13:47:37.861Z,1220
2022-10-25T13:48:38.076Z,904
2022-10-25T13:49:39.006Z,992
2022-10-25T13:50:39.934Z,3384
2022-10-25T13:51:40.140Z,3620
2022-10-25T13:52:40.331Z,3676
2022-10-25T13:53:40.563Z,3916
2022-10-25T13:54:40.188Z,4136
2022-10-25T13:55:41.494Z,3028
2022-10-25T13:56:41.545Z,3620
2022-10-25T13:57:42.496Z,3856
2022-10-25T13:58:43.427Z,4032
2022-10-25T13:59:43.777Z,4072
2022-10-25T14:00:46.615Z,3992
2022-10-25T14:01:46.057Z,3256
2022-10-25T14:02:46.628Z,3976
2022-10-25T14:03:47.276Z,4068
2022-10-25T14:04:46.609Z,3936
2022-10-25T14:05:47.812Z,3788
2022-10-25T14:06:48.242Z,3704
2022-10-25T14:07:48.885Z,3820
2022-10-25T14:08:50.080Z,3768
2022-10-25T14:09:50.577Z,3668
2022-10-25T14:10:51.091Z,3540
2022-10-25T14:11:58.152Z,3564
2022-10-25T14:12:52.505Z,3664
2022-10-25T14:13:51.711Z,3608
2022-10-25T14:14:52.950Z,3676
2022-10-25T14:15:53.360Z,3644
2022-10-25T14:16:53.690Z,3596
2022-10-25T14:17:53.899Z,3532
2022-10-25T14:18:54.408Z,3436
2022-10-25T14:19:53.758Z,3344
2022-10-25T14:20:54.476Z,3308
2022-10-25T14:21:55.675Z,3292